createdAt,value
2023-02-14T00:02:36.606Z,102450.63
2023-02-14T00:07:38.229Z,102442.72
2023-02-14T00:12:39.737Z,102449.91
2023-02-14T00:17:41.188Z,102456.03
2023-02-14T00:22:42.675Z,102448.72
2023-02-14T00:27:44.383Z,102441.03
2023-02-14T00:32:45.872Z,102445.28
2023-02-14T00:37:47.394Z,102445.53
2023-02-14T00:42:48.912Z,102446.03
2023-02-14T00:47:50.446Z,102437.44
2023-02-14T00:52:51.976Z,102428.81
2023-02-14T00:57:53.452Z,102434.34
2023-02-14T01:02:55.053Z,102434.91
2023-02-14T01:07:56.598Z,102441.50
2023-02-14T01:12:58.391Z,102439.50
2023-02-14T01:18:00.602Z,102433.13
2023-02-14T01:23:02.715Z,102438.84
2023-02-14T01:28:05.035Z,102435.38
2023-02-14T01:33:06.597Z,102432.16
2023-02-14T01:38:08.159Z,102436.34
2023-02-14T01:43:16.062Z,102426.41
2023-02-14T01:48:21.177Z,102426.75
2023-02-14T01:53:27.336Z,102426.59
2023-02-14T01:58:31.407Z,102428.97
2023-02-14T02:03:37.088Z,102423.13
2023-02-14T02:08:48.757Z,102417.03
2023-02-14T02:13:50.385Z,102425.88
2023-02-14T02:19:12.037Z,102429.63
2023-02-14T02:24:25.667Z,102423.50
2023-02-14T02:29:38.773Z,102420.72
2023-02-14T02:35:17.807Z,102410.59
2023-02-14T02:40:47.302Z,102409.44
2023-02-14T02:46:16.715Z,102408.84
2023-02-14T02:51:28.010Z,102406.06
2023-02-14T02:56:38.002Z,102405.84
2023-02-14T03:01:41.208Z,102401.53
2023-02-14T03:06:45.284Z,102402.34
2023-02-14T03:11:54.475Z,102406.75
2023-02-14T03:17:07.257Z,102398.91
2023-02-14T03:22:21.008Z,102403.22
2023-02-14T03:27:38.960Z,102403.31
2023-02-14T03:33:01.687Z,102410.56
2023-02-14T03:38:41.821Z,102413.88
2023-02-14T03:43:48.454Z,102425.28
2023-02-14T03:48:52.688Z,102414.81
2023-02-14T03:53:58.063Z,102422.94
2023-02-14T03:59:07.150Z,102420.09
2023-02-14T04:04:09.720Z,102425.91
2023-02-14T04:09:11.232Z,102419.72
2023-02-14T04:14:12.701Z,102420.47
2023-02-14T04:19:14.218Z,102422.00
2023-02-14T04:24:15.800Z,102421.97
2023-02-14T04:29:17.291Z,102422.91
2023-02-14T04:34:18.796Z,102428.25
2023-02-14T04:39:20.432Z,102421.00
2023-02-14T04:44:21.954Z,102424.78
2023-02-14T04:49:23.461Z,102419.84
2023-02-14T04:54:25.374Z,102421.47
2023-02-14T04:59:26.881Z,102417.47
2023-02-14T05:04:28.345Z,102407.84
2023-02-14T05:09:29.895Z,102409.97
2023-02-14T05:14:31.299Z,102403.03
2023-02-14T05:19:32.691Z,102402.97
2023-02-14T05:24:34.158Z,102399.47
2023-02-14T05:29:35.644Z,102392.69
2023-02-14T05:34:37.164Z,102404.81
2023-02-14T05:39:38.650Z,102404.91
2023-02-14T05:44:40.143Z,102407.38
2023-02-14T05:49:41.638Z,102409.19
2023-02-14T05:54:43.124Z,102405.59
2023-02-14T05:59:44.578Z,102407.53
2023-02-14T06:04:46.232Z,102407.50
2023-02-14T06:09:47.776Z,102408.31
2023-02-14T06:14:49.341Z,102412.72
2023-02-14T06:19:50.953Z,102424.09
2023-02-14T06:24:52.405Z,102415.91
2023-02-14T06:29:53.919Z,102421.06
2023-02-14T06:34:55.463Z,102414.78
2023-02-14T06:39:56.948Z,102419.16
2023-02-14T06:44:58.553Z,102413.88
2023-02-14T06:50:00.057Z,102418.97
2023-02-14T06:55:01.524Z,102416.50
2023-02-14T07:00:03.450Z,102415.19
2023-02-14T07:05:05.183Z,102416.19
2023-02-14T07:10:07.186Z,102416.88
2023-02-14T07:15:11.520Z,102408.00
2023-02-14T07:20:13.574Z,102415.97
2023-02-14T07:25:15.092Z,102412.09
2023-02-14T07:30:16.773Z,102411.16
2023-02-14T07:35:18.546Z,102408.16
2023-02-14T07:40:20.427Z,102399.97
2023-02-14T07:45:22.694Z,102396.53
2023-02-14T07:50:24.314Z,102400.38
2023-02-14T07:55:25.847Z,102409.94
2023-02-14T08:00:27.855Z,102409.06
2023-02-14T08:05:29.668Z,102408.97
2023-02-14T08:10:31.376Z,102406.59
2023-02-14T08:15:35.140Z,102411.53
2023-02-14T08:20:36.691Z,102401.22
2023-02-14T08:25:38.449Z,102390.78
2023-02-14T08:30:40.621Z,102396.44
2023-02-14T08:35:42.375Z,102399.41
2023-02-14T08:40:44.688Z,102395.94
2023-02-14T08:45:46.294Z,102397.28
2023-02-14T08:50:47.797Z,102398.94
2023-02-14T08:55:49.542Z,102403.88
2023-02-14T09:00:51.182Z,102399.66
2023-02-14T09:05:52.726Z,102406.03
2023-02-14T09:10:54.271Z,102410.78
2023-02-14T09:15:55.814Z,102414.66
2023-02-14T09:20:57.959Z,102409.38
2023-02-14T09:26:01.082Z,102423.03
2023-02-14T09:31:24.370Z,102413.66
2023-02-14T09:36:25.995Z,102420.34
2023-02-14T09:41:30.474Z,102415.69
2023-02-14T09:46:41.664Z,102415.78
2023-02-14T09:51:51.390Z,102416.84
2023-02-14T09:57:13.431Z,102417.09
2023-02-14T10:02:31.979Z,102417.28
2023-02-14T10:07:43.646Z,102415.13
2023-02-14T10:12:51.549Z,102418.63
2023-02-14T10:18:01.873Z,102406.81
2023-02-14T10:23:15.018Z,102397.94
2023-02-14T10:28:23.685Z,102390.50
2023-02-14T10:33:30.750Z,102391.28
2023-02-14T10:39:07.814Z,102389.94
2023-02-14T10:44:18.107Z,102380.31
2023-02-14T10:49:30.532Z,102380.41
2023-02-14T10:54:38.250Z,102376.41
2023-02-14T10:59:50.923Z,102361.94
2023-02-14T11:04:52.842Z,102364.31
2023-02-14T11:09:54.391Z,102356.22
2023-02-14T11:15:09.118Z,102359.44
2023-02-14T11:20:19.843Z,102347.47
2023-02-14T11:25:27.085Z,102344.81
2023-02-14T11:30:36.366Z,102347.03
2023-02-14T11:35:38.776Z,102339.91
2023-02-14T11:40:42.072Z,102325.66
2023-02-14T11:45:49.087Z,102321.31
2023-02-14T11:51:03.724Z,102321.69
2023-02-14T11:56:05.704Z,102320.03
2023-02-14T12:01:20.893Z,102316.47
2023-02-14T12:06:31.023Z,102307.34
2023-02-14T12:11:32.477Z,102306.66
2023-02-14T12:16:49.046Z,102292.22
2023-02-14T12:22:01.086Z,102275.13
2023-02-14T12:27:13.479Z,102275.72
2023-02-14T12:32:24.628Z,102268.66
2023-02-14T12:37:42.519Z,102253.53
2023-02-14T12:43:03.324Z,102257.59
2023-02-14T12:48:17.002Z,102241.91
2023-02-14T12:53:28.731Z,102238.84
2023-02-14T12:58:44.823Z,102238.75
2023-02-14T13:04:05.047Z,102234.94
2023-02-14T13:09:11.774Z,102235.34
2023-02-14T13:14:43.750Z,102220.44
2023-02-14T13:20:05.866Z,102209.84
2023-02-14T13:25:24.140Z,102206.00
2023-02-14T13:30:31.003Z,102196.69
2023-02-14T13:35:34.121Z,102185.28
2023-02-14T13:40:36.454Z,102185.91
2023-02-14T13:45:40.693Z,102186.16
2023-02-14T13:50:58.645Z,102167.22
2023-02-14T13:56:01.103Z,102184.22
2023-02-14T14:01:33.411Z,102172.63
2023-02-14T14:07:02.848Z,102171.63
2023-02-14T14:12:04.435Z,102167.38
2023-02-14T14:17:19.950Z,102161.50
2023-02-14T14:22:21.762Z,102162.75
2023-02-14T14:27:31.825Z,102157.22
2023-02-14T14:32:36.513Z,102155.19
2023-02-14T14:37:49.085Z,102159.41
2023-02-14T14:42:51.650Z,102159.13
2023-02-14T14:47:56.284Z,102153.94
2023-02-14T14:53:05.600Z,102157.38
2023-02-14T14:58:36.295Z,102151.66
2023-02-14T15:03:38.244Z,102136.78
2023-02-14T15:08:39.733Z,102133.72
2023-02-14T15:13:50.998Z,102149.84
2023-02-14T15:18:57.721Z,102141.72
2023-02-14T15:24:01.444Z,102143.50
2023-02-14T15:29:06.192Z,102140.47
2023-02-14T15:34:10.022Z,102143.25
2023-02-14T15:39:13.027Z,102153.00
2023-02-14T15:44:23.388Z,102154.88
2023-02-14T15:49:33.248Z,102149.00
2023-02-14T15:54:38.969Z,102144.94
2023-02-14T15:59:42.440Z,102142.34
2023-02-14T16:04:44.615Z,102140.78
2023-02-14T16:09:46.732Z,102137.22
2023-02-14T16:15:01.876Z,102130.50
2023-02-14T16:20:26.094Z,102146.38
2023-02-14T16:25:27.572Z,102140.72
2023-02-14T16:30:29.139Z,102149.44
2023-02-14T16:35:31.095Z,102145.25
2023-02-14T16:40:32.628Z,102143.63
2023-02-14T16:45:34.015Z,102158.28
2023-02-14T16:50:37.894Z,102162.09
2023-02-14T16:55:40.272Z,102161.06
2023-02-14T17:00:41.672Z,102161.59
2023-02-14T17:05:43.565Z,102161.41
2023-02-14T17:10:47.646Z,102159.63
2023-02-14T17:15:50.103Z,102169.00
2023-02-14T17:20:51.712Z,102161.94
2023-02-14T17:25:53.214Z,102159.47
2023-02-14T17:30:54.843Z,102166.22
2023-02-14T17:35:56.540Z,102180.19
2023-02-14T17:40:58.350Z,102178.78
2023-02-14T17:46:04.415Z,102170.59
2023-02-14T17:51:08.361Z,102171.22
2023-02-14T17:56:15.410Z,102168.53
2023-02-14T18:01:25.182Z,102173.81
2023-02-14T18:06:26.791Z,102167.25
2023-02-14T18:11:30.897Z,102174.22
2023-02-14T18:16:32.462Z,102158.88
2023-02-14T18:21:35.900Z,102160.53
2023-02-14T18:26:39.678Z,102151.41
2023-02-14T18:31:43.177Z,102143.78
2023-02-14T18:36:44.670Z,102131.53
2023-02-14T18:41:46.134Z,102131.56
2023-02-14T18:46:47.585Z,102133.66
2023-02-14T18:51:49.093Z,102114.66
2023-02-14T18:56:50.609Z,102119.25
2023-02-14T19:01:52.218Z,102118.13
2023-02-14T19:06:53.687Z,102120.03
2023-02-14T19:11:55.475Z,102116.81
2023-02-14T19:16:56.927Z,102115.47
2023-02-14T19:21:59.577Z,102112.47
2023-02-14T19:27:01.143Z,102110.09
2023-02-14T19:32:02.730Z,102118.13
2023-02-14T19:37:04.277Z,102112.25
2023-02-14T19:42:05.861Z,102101.72
2023-02-14T19:47:23.396Z,102105.06
2023-02-14T19:52:28.749Z,102089.72
2023-02-14T19:57:30.239Z,102086.06
2023-02-14T20:02:31.732Z,102082.06
2023-02-14T20:07:33.330Z,102075.72
2023-02-14T20:12:35.046Z,102062.56
2023-02-14T20:17:36.567Z,102065.03
2023-02-14T20:22:38.145Z,102055.00
2023-02-14T20:27:39.701Z,102061.50
2023-02-14T20:32:41.437Z,102059.28
2023-02-14T20:37:43.021Z,102060.56
2023-02-14T20:42:44.512Z,102050.72
2023-02-14T20:47:48.961Z,102040.34
2023-02-14T20:52:50.628Z,102034.66
2023-02-14T20:57:52.088Z,102032.22
2023-02-14T21:02:53.835Z,102025.41
2023-02-14T21:07:55.453Z,102027.56
2023-02-14T21:12:56.905Z,102020.91
2023-02-14T21:17:58.459Z,102021.66
2023-02-14T21:22:59.913Z,102015.56
2023-02-14T21:28:01.388Z,102002.72
2023-02-14T21:33:03.011Z,102008.66
2023-02-14T21:38:04.586Z,102000.47
2023-02-14T21:43:06.074Z,101989.38
2023-02-14T21:48:07.744Z,101984.44
2023-02-14T21:53:09.308Z,101986.16
2023-02-14T21:58:10.906Z,101998.06
2023-02-14T22:03:13.251Z,101994.25
2023-02-14T22:08:14.990Z,101995.41
2023-02-14T22:13:16.667Z,101995.16
2023-02-14T22:18:18.482Z,101999.31
2023-02-14T22:23:20.076Z,101992.09
2023-02-14T22:28:21.582Z,101991.91
2023-02-14T22:33:23.119Z,101993.44
2023-02-14T22:38:25.237Z,101991.63
2023-02-14T22:43:29.778Z,101990.50
2023-02-14T22:48:33.473Z,101982.41
2023-02-14T22:53:35.122Z,101991.06
2023-02-14T22:58:37.079Z,101984.69
2023-02-14T23:03:38.607Z,101983.22
2023-02-14T23:08:44.939Z,101982.94
2023-02-14T23:13:46.495Z,101985.31
2023-02-14T23:18:48.074Z,101969.88
2023-02-14T23:23:52.461Z,101972.84
2023-02-14T23:28:54.126Z,101970.19
2023-02-14T23:33:55.840Z,101959.50
2023-02-14T23:38:57.698Z,101955.69
2023-02-14T23:43:59.171Z,101965.72
2023-02-14T23:49:00.810Z,101959.94
2023-02-14T23:54:02.645Z,101960.41
2023-02-14T23:59:05.700Z,101951.19
